createdAt,value
2023-05-23T00:04:52.261Z,0.00
2023-05-23T00:09:52.192Z,0.00
2023-05-23T00:14:52.129Z,0.00
2023-05-23T00:19:52.066Z,0.00
2023-05-23T00:24:52.564Z,0.00
2023-05-23T00:29:51.933Z,0.00
2023-05-23T00:34:51.857Z,0.00
2023-05-23T00:39:51.787Z,0.00
2023-05-23T00:44:51.729Z,0.00
2023-05-23T00:49:51.652Z,0.00
2023-05-23T00:54:51.586Z,0.00
2023-05-23T00:59:51.546Z,0.00
2023-05-23T01:04:51.772Z,0.00
2023-05-23T01:09:51.392Z,0.00
2023-05-23T01:14:51.326Z,0.00
2023-05-23T01:19:51.288Z,0.00
2023-05-23T01:24:51.271Z,0.00
2023-05-23T01:29:51.163Z,0.00
2023-05-23T01:34:51.100Z,0.00
2023-05-23T01:39:51.018Z,0.00
2023-05-23T01:44:50.978Z,0.00
2023-05-23T01:49:50.901Z,0.00
2023-05-23T01:54:50.890Z,0.00
2023-05-23T01:59:50.795Z,0.00
2023-05-23T02:04:50.734Z,0.00
2023-05-23T02:09:50.636Z,0.00
2023-05-23T02:14:50.586Z,0.00
2023-05-23T02:19:50.489Z,0.00
2023-05-23T02:24:50.442Z,0.00
2023-05-23T02:29:50.367Z,0.00
2023-05-23T02:34:50.319Z,0.00
2023-05-23T02:39:50.245Z,0.00
2023-05-23T02:44:50.160Z,0.00
2023-05-23T02:49:50.091Z,0.00
2023-05-23T02:54:50.029Z,0.00
2023-05-23T02:59:49.963Z,0.00
2023-05-23T03:04:49.959Z,0.00
2023-05-23T03:09:49.939Z,5.62
2023-05-23T03:14:49.824Z,5.62
2023-05-23T03:19:49.838Z,11.25
2023-05-23T03:24:49.757Z,16.88
2023-05-23T03:29:49.731Z,22.50
2023-05-23T03:34:49.560Z,28.12
2023-05-23T03:39:49.561Z,45.00
2023-05-23T03:44:49.410Z,56.25
2023-05-23T03:49:49.337Z,67.50
2023-05-23T03:54:49.274Z,73.12
2023-05-23T03:59:49.187Z,67.50
2023-05-23T04:04:49.116Z,61.88
2023-05-23T04:09:49.055Z,67.50
2023-05-23T04:14:49.045Z,78.75
2023-05-23T04:19:48.914Z,95.62
2023-05-23T04:24:48.808Z,118.12
2023-05-23T04:29:48.707Z,151.88
2023-05-23T04:34:48.642Z,174.38
2023-05-23T04:39:48.576Z,174.38
2023-05-23T04:44:48.516Z,185.62
2023-05-23T04:49:48.443Z,151.88
2023-05-23T04:54:48.385Z,129.38
2023-05-23T04:59:48.305Z,112.50
2023-05-23T05:04:48.241Z,129.38
2023-05-23T05:09:48.167Z,180.00
2023-05-23T05:14:48.097Z,270.00
2023-05-23T05:19:48.040Z,376.88
2023-05-23T05:24:47.975Z,517.50
2023-05-23T05:29:47.901Z,528.75
2023-05-23T05:34:49.460Z,270.00
2023-05-23T05:39:47.764Z,236.25
2023-05-23T05:44:47.709Z,219.38
2023-05-23T05:49:47.636Z,202.50
2023-05-23T05:54:47.562Z,320.62
2023-05-23T05:59:47.491Z,849.38
2023-05-23T06:04:47.496Z,1074.38
2023-05-23T06:09:47.371Z,1344.38
2023-05-23T06:14:47.303Z,691.88
2023-05-23T06:19:47.220Z,506.25
2023-05-23T06:24:47.177Z,337.50
2023-05-23T06:29:47.119Z,213.75
2023-05-23T06:34:47.046Z,253.12
2023-05-23T06:39:46.963Z,393.75
2023-05-23T06:44:46.905Z,331.88
2023-05-23T06:49:46.828Z,495.00
2023-05-23T06:54:46.795Z,444.38
2023-05-23T06:59:46.696Z,495.00
2023-05-23T07:04:46.632Z,973.12
2023-05-23T07:09:46.573Z,843.75
2023-05-23T07:14:46.500Z,697.50
2023-05-23T07:19:46.417Z,736.88
2023-05-23T07:24:46.369Z,489.38
2023-05-23T07:29:46.280Z,596.25
2023-05-23T07:34:46.222Z,731.25
2023-05-23T07:39:46.151Z,1085.62
2023-05-23T07:44:46.096Z,832.50
2023-05-23T07:49:46.010Z,956.25
2023-05-23T07:54:45.950Z,961.88
2023-05-23T07:59:45.892Z,1209.38
2023-05-23T08:04:45.932Z,1057.50
2023-05-23T08:09:45.743Z,1237.50
2023-05-23T08:14:51.592Z,815.62
2023-05-23T08:19:46.620Z,1310.62
2023-05-23T08:24:45.558Z,1091.25
2023-05-23T08:29:45.487Z,1856.25
2023-05-23T08:34:45.434Z,1411.88
2023-05-23T08:39:45.353Z,866.25
2023-05-23T08:44:45.314Z,1040.62
2023-05-23T08:49:45.234Z,961.88
2023-05-23T08:54:45.186Z,821.25
2023-05-23T08:59:45.099Z,855.00
2023-05-23T09:04:45.031Z,759.38
2023-05-23T09:09:44.962Z,815.62
2023-05-23T09:14:44.902Z,765.00
2023-05-23T09:19:44.823Z,720.00
2023-05-23T09:24:44.774Z,652.50
2023-05-23T09:29:44.700Z,483.75
2023-05-23T09:34:44.640Z,466.88
2023-05-23T09:39:44.591Z,348.75
2023-05-23T09:44:44.505Z,320.62
2023-05-23T09:49:44.428Z,444.38
2023-05-23T09:54:44.373Z,618.75
2023-05-23T09:59:44.296Z,624.38
2023-05-23T10:04:44.340Z,669.38
2023-05-23T10:09:44.165Z,500.62
2023-05-23T10:14:44.107Z,534.38
2023-05-23T10:19:44.054Z,765.00
2023-05-23T10:24:43.976Z,973.12
2023-05-23T10:29:43.952Z,1248.75
2023-05-23T10:34:43.841Z,1366.88
2023-05-23T10:39:43.763Z,1136.25
2023-05-23T10:44:43.709Z,1119.38
2023-05-23T10:49:43.701Z,1057.50
2023-05-23T10:54:43.587Z,1068.75
2023-05-23T10:59:43.503Z,900.00
2023-05-23T11:04:43.494Z,939.38
2023-05-23T11:09:43.372Z,950.62
2023-05-23T11:14:43.310Z,1186.88
2023-05-23T11:19:43.359Z,1012.50
2023-05-23T11:24:43.183Z,1035.00
2023-05-23T11:29:43.110Z,826.88
2023-05-23T11:34:43.060Z,675.00
2023-05-23T11:39:42.976Z,748.12
2023-05-23T11:44:42.919Z,860.62
2023-05-23T11:49:42.850Z,866.25
2023-05-23T11:54:42.782Z,798.75
2023-05-23T11:59:42.719Z,562.50
2023-05-23T12:04:42.681Z,770.62
2023-05-23T12:09:42.635Z,894.38
2023-05-23T12:14:42.513Z,1006.88
2023-05-23T12:19:42.535Z,984.38
2023-05-23T12:24:42.384Z,967.50
2023-05-23T12:29:42.322Z,905.62
2023-05-23T12:34:42.330Z,725.62
2023-05-23T12:39:42.177Z,489.38
2023-05-23T12:44:42.202Z,202.50
2023-05-23T12:49:42.086Z,275.62
2023-05-23T12:54:41.995Z,416.25
2023-05-23T12:59:41.920Z,517.50
2023-05-23T13:04:41.856Z,495.00
2023-05-23T13:09:41.805Z,405.00
2023-05-23T13:14:41.725Z,331.88
2023-05-23T13:19:41.814Z,298.12
2023-05-23T13:24:41.594Z,258.75
2023-05-23T13:29:41.525Z,230.62
2023-05-23T13:34:41.489Z,208.12
2023-05-23T13:39:41.388Z,225.00
2023-05-23T13:44:41.328Z,292.50
2023-05-23T13:49:41.265Z,303.75
2023-05-23T13:54:41.202Z,337.50
2023-05-23T13:59:41.131Z,309.38
2023-05-23T14:04:41.093Z,281.25
2023-05-23T14:09:41.001Z,337.50
2023-05-23T14:14:40.930Z,405.00
2023-05-23T14:19:40.933Z,410.62
2023-05-23T14:24:40.812Z,483.75
2023-05-23T14:29:40.752Z,478.12
2023-05-23T14:34:40.661Z,376.88
2023-05-23T14:39:41.376Z,264.38
2023-05-23T14:44:40.520Z,270.00
2023-05-23T14:49:40.460Z,298.12
2023-05-23T14:54:40.401Z,281.25
2023-05-23T14:59:40.358Z,360.00
2023-05-23T15:04:40.256Z,399.38
2023-05-23T15:09:40.189Z,264.38
2023-05-23T15:14:40.143Z,140.62
2023-05-23T15:19:40.142Z,73.12
2023-05-23T15:24:40.954Z,118.12
2023-05-23T15:29:39.935Z,230.62
2023-05-23T15:34:39.868Z,151.88
2023-05-23T15:39:39.794Z,118.12
2023-05-23T15:44:40.705Z,78.75
2023-05-23T15:49:39.668Z,129.38
2023-05-23T15:54:39.690Z,90.00
2023-05-23T15:59:39.581Z,106.88
2023-05-23T16:04:39.539Z,90.00
2023-05-23T16:09:39.457Z,90.00
2023-05-23T16:14:39.362Z,67.50
2023-05-23T16:19:40.164Z,61.88
2023-05-23T16:24:39.461Z,61.88
2023-05-23T16:29:39.174Z,61.88
2023-05-23T16:34:39.470Z,39.38
2023-05-23T16:39:39.053Z,28.12
2023-05-23T16:44:38.996Z,33.75
2023-05-23T16:49:38.905Z,39.38
2023-05-23T16:54:39.632Z,28.12
2023-05-23T16:59:38.781Z,33.75
2023-05-23T17:04:38.694Z,50.62
2023-05-23T17:09:38.620Z,45.00
2023-05-23T17:14:38.533Z,22.50
2023-05-23T17:19:38.561Z,22.50
2023-05-23T17:24:38.636Z,28.12
2023-05-23T17:29:38.346Z,39.38
2023-05-23T17:34:38.267Z,33.75
2023-05-23T17:39:38.532Z,22.50
2023-05-23T17:44:38.125Z,16.88
2023-05-23T17:49:38.050Z,16.88
2023-05-23T17:54:38.031Z,16.88
2023-05-23T17:59:37.909Z,11.25
2023-05-23T18:04:38.379Z,11.25
2023-05-23T18:09:38.787Z,5.62
2023-05-23T18:14:37.707Z,5.62
2023-05-23T18:19:37.711Z,5.62
2023-05-23T18:24:37.582Z,0.00
2023-05-23T18:29:37.525Z,0.00
2023-05-23T18:34:37.447Z,0.00
2023-05-23T18:39:37.410Z,0.00
2023-05-23T18:44:37.324Z,0.00
2023-05-23T18:49:37.257Z,0.00
2023-05-23T18:54:37.180Z,0.00
2023-05-23T18:59:37.127Z,0.00
2023-05-23T19:04:37.057Z,0.00
2023-05-23T19:09:37.003Z,0.00
2023-05-23T19:14:36.925Z,0.00
2023-05-23T19:19:36.885Z,0.00
2023-05-23T19:24:36.785Z,0.00
2023-05-23T19:29:36.723Z,0.00
2023-05-23T19:34:36.679Z,0.00
2023-05-23T19:39:36.602Z,0.00
2023-05-23T19:44:36.519Z,0.00
2023-05-23T19:49:36.477Z,0.00
2023-05-23T19:54:36.426Z,0.00
2023-05-23T19:59:36.352Z,0.00
2023-05-23T20:04:36.265Z,0.00
2023-05-23T20:09:36.197Z,0.00
2023-05-23T20:14:36.125Z,0.00
2023-05-23T20:19:36.089Z,0.00
2023-05-23T20:24:35.995Z,0.00
2023-05-23T20:29:35.935Z,0.00
2023-05-23T20:34:35.867Z,0.00
2023-05-23T20:39:35.796Z,0.00
2023-05-23T20:44:35.758Z,0.00
2023-05-23T20:49:35.695Z,0.00
2023-05-23T20:54:35.591Z,0.00
2023-05-23T20:59:35.535Z,0.00
2023-05-23T21:04:35.458Z,0.00
2023-05-23T21:09:35.401Z,0.00
2023-05-23T21:14:35.345Z,0.00
2023-05-23T21:19:35.299Z,0.00
2023-05-23T21:24:35.232Z,0.00
2023-05-23T21:29:35.140Z,0.00
2023-05-23T21:34:35.093Z,0.00
2023-05-23T21:39:50.039Z,0.00
2023-05-23T21:44:35.950Z,0.00
2023-05-23T21:49:34.888Z,0.00
2023-05-23T21:54:34.859Z,0.00
2023-05-23T21:59:34.746Z,0.00
2023-05-23T22:04:34.684Z,0.00
2023-05-23T22:09:34.619Z,0.00
2023-05-23T22:14:34.547Z,0.00
2023-05-23T22:19:34.562Z,0.00
2023-05-23T22:24:34.429Z,0.00
2023-05-23T22:29:34.371Z,0.00
2023-05-23T22:34:34.291Z,0.00
2023-05-23T22:39:34.233Z,0.00
2023-05-23T22:44:34.164Z,0.00
2023-05-23T22:49:34.101Z,0.00
2023-05-23T22:54:34.039Z,0.00
2023-05-23T22:59:33.973Z,0.00
2023-05-23T23:04:33.896Z,0.00
2023-05-23T23:09:33.859Z,0.00
2023-05-23T23:14:33.779Z,0.00
2023-05-23T23:19:33.710Z,0.00
2023-05-23T23:24:33.646Z,0.00
2023-05-23T23:29:33.572Z,0.00
2023-05-23T23:34:33.513Z,0.00
2023-05-23T23:39:33.451Z,0.00
2023-05-23T23:44:33.377Z,0.00
2023-05-23T23:49:33.315Z,0.00
2023-05-23T23:54:33.241Z,0.00
2023-05-23T23:59:33.199Z,0.00
